createdAt,value
2018-03-24T00:00:36.589Z,99.90
2018-03-24T00:03:04.053Z,99.90
2018-03-24T00:05:31.499Z,99.90
2018-03-24T00:07:58.948Z,99.90
2018-03-24T00:10:26.400Z,99.90
2018-03-24T00:12:54.611Z,99.90
2018-03-24T00:15:22.063Z,99.90
2018-03-24T00:17:49.518Z,99.90
2018-03-24T00:20:16.960Z,99.90
2018-03-24T00:22:44.420Z,99.90
2018-03-24T00:25:11.863Z,99.90
2018-03-24T00:27:39.330Z,99.90
2018-03-24T00:30:06.769Z,99.90
2018-03-24T00:32:34.988Z,99.90
2018-03-24T00:35:02.436Z,99.90
2018-03-24T00:37:29.900Z,99.90
2018-03-24T00:39:57.340Z,99.90
2018-03-24T00:42:24.792Z,99.90
2018-03-24T00:44:52.240Z,99.90
2018-03-24T00:47:19.727Z,99.90
2018-03-24T00:49:47.180Z,99.90
2018-03-24T00:52:14.632Z,99.90
2018-03-24T00:54:42.091Z,99.90
2018-03-24T00:57:09.556Z,99.90
2018-03-24T00:59:37.007Z,99.90
2018-03-24T01:02:04.484Z,99.90
2018-03-24T01:04:31.924Z,99.90
2018-03-24T01:06:59.376Z,99.90
2018-03-24T01:09:26.848Z,99.90
2018-03-24T01:11:54.295Z,99.90
2018-03-24T01:14:21.740Z,99.90
2018-03-24T01:16:49.208Z,99.90
2018-03-24T01:19:17.417Z,99.90
2018-03-24T01:21:44.875Z,99.90
2018-03-24T01:24:12.315Z,99.90
2018-03-24T01:26:39.759Z,99.90
2018-03-24T01:29:07.207Z,99.90
2018-03-24T01:31:34.654Z,99.90
2018-03-24T01:34:02.113Z,99.90
2018-03-24T01:36:29.573Z,99.90
2018-03-24T01:38:57.023Z,99.90
2018-03-24T01:41:24.472Z,99.90
2018-03-24T01:43:52.687Z,99.90
2018-03-24T01:46:20.133Z,99.90
2018-03-24T01:48:47.584Z,99.90
2018-03-24T01:51:15.029Z,98.90
2018-03-24T01:53:53.297Z,97.60
2018-03-24T01:56:20.731Z,95.70
2018-03-24T01:58:48.183Z,97.80
2018-03-24T02:01:15.627Z,99.40
2018-03-24T02:03:43.098Z,99.90
2018-03-24T02:06:10.528Z,99.90
2018-03-24T02:08:37.984Z,99.90
2018-03-24T02:11:05.420Z,99.90
2018-03-24T02:13:33.635Z,99.90
2018-03-24T02:16:01.086Z,99.90
2018-03-24T02:18:28.547Z,99.90
2018-03-24T02:20:59.403Z,99.90
2018-03-24T02:23:26.857Z,99.90
2018-03-24T02:25:54.313Z,99.90
2018-03-24T02:28:21.771Z,99.10
2018-03-24T02:30:49.219Z,99.90
2018-03-24T02:33:16.688Z,99.90
2018-03-24T02:35:44.128Z,99.90
2018-03-24T02:38:11.576Z,99.90
2018-03-24T02:40:39.044Z,99.90
2018-03-24T02:43:06.481Z,99.90
2018-03-24T02:45:33.940Z,99.90
2018-03-24T02:48:01.428Z,99.90
2018-03-24T02:50:28.869Z,99.90
2018-03-24T02:52:56.340Z,99.90
2018-03-24T02:55:23.789Z,99.90
2018-03-24T02:57:51.275Z,99.90
2018-03-24T03:00:18.723Z,99.90
2018-03-24T03:02:46.165Z,99.90
2018-03-24T03:05:13.631Z,99.90
2018-03-24T03:07:41.088Z,99.90
2018-03-24T03:10:08.536Z,99.90
2018-03-24T03:12:36.002Z,99.90
2018-03-24T03:15:03.437Z,99.90
2018-03-24T03:17:30.897Z,99.90
2018-03-24T03:19:58.336Z,99.90
2018-03-24T03:22:25.802Z,99.90
2018-03-24T03:24:53.243Z,99.90
2018-03-24T03:27:20.706Z,99.90
2018-03-24T03:29:48.145Z,99.90
2018-03-24T03:32:16.367Z,99.90
2018-03-24T03:34:43.823Z,99.90
2018-03-24T03:37:11.281Z,99.90
2018-03-24T03:39:38.771Z,99.90
2018-03-24T03:42:06.207Z,99.90
2018-03-24T03:44:33.660Z,99.90
2018-03-24T03:47:01.100Z,99.90
2018-03-24T03:49:28.555Z,99.90
2018-03-24T03:51:55.995Z,99.90
2018-03-24T03:54:23.451Z,99.90
2018-03-24T03:56:50.897Z,99.90
2018-03-24T03:59:19.133Z,99.90
2018-03-24T04:01:46.576Z,99.90
2018-03-24T04:04:14.031Z,99.90
2018-03-24T04:06:41.483Z,99.90
2018-03-24T04:09:08.935Z,99.90
2018-03-24T04:11:36.387Z,99.90
2018-03-24T04:14:03.857Z,99.90
2018-03-24T04:16:31.333Z,99.90
2018-03-24T04:18:58.836Z,99.90
2018-03-24T04:21:26.333Z,99.90
2018-03-24T04:23:53.815Z,99.90
2018-03-24T04:26:21.289Z,99.90
2018-03-24T04:28:49.532Z,99.90
2018-03-24T04:31:16.988Z,99.90
2018-03-24T04:33:44.472Z,99.90
2018-03-24T04:36:12.772Z,97.90
2018-03-24T04:38:40.280Z,97.90
2018-03-24T04:41:07.728Z,99.40
2018-03-24T04:43:35.192Z,99.90
2018-03-24T04:46:02.651Z,99.90
2018-03-24T04:48:30.108Z,99.90
2018-03-24T04:50:57.576Z,99.90
2018-03-24T04:53:25.039Z,99.90
2018-03-24T04:55:52.482Z,99.90
2018-03-24T04:58:19.944Z,99.90
2018-03-24T05:00:47.443Z,99.90
2018-03-24T05:03:15.670Z,99.90
2018-03-24T05:05:43.107Z,99.90
2018-03-24T05:08:10.572Z,99.90
2018-03-24T05:10:38.007Z,99.90
2018-03-24T05:13:05.477Z,99.90
2018-03-24T05:15:32.940Z,99.90
2018-03-24T05:18:00.400Z,99.90
2018-03-24T05:20:27.868Z,99.90
2018-03-24T05:22:55.333Z,99.90
2018-03-24T05:25:22.783Z,99.90
2018-03-24T05:27:51.092Z,99.90
2018-03-24T05:30:19.324Z,99.90
2018-03-24T05:32:46.808Z,99.90
2018-03-24T05:35:14.264Z,99.90
2018-03-24T05:37:41.707Z,99.90
2018-03-24T05:40:09.169Z,99.90
2018-03-24T05:42:36.617Z,99.90
2018-03-24T05:45:04.120Z,99.90
2018-03-24T05:47:32.358Z,99.90
2018-03-24T05:49:59.824Z,99.90
2018-03-24T05:52:27.284Z,99.90
2018-03-24T05:54:54.753Z,99.90
2018-03-24T05:57:22.209Z,99.90
2018-03-24T05:59:50.491Z,99.90
2018-03-24T06:02:17.935Z,99.90
2018-03-24T06:04:45.421Z,99.90
2018-03-24T06:07:13.640Z,99.90
2018-03-24T06:09:41.101Z,99.90
2018-03-24T06:12:08.559Z,99.90
2018-03-24T06:14:36.024Z,99.90
2018-03-24T06:17:03.474Z,99.90
2018-03-24T06:19:30.933Z,99.90
2018-03-24T06:21:58.392Z,99.90
2018-03-24T06:24:25.887Z,99.90
2018-03-24T06:26:53.336Z,99.90
2018-03-24T06:29:20.801Z,99.90
2018-03-24T06:31:58.171Z,99.90
2018-03-24T06:34:25.611Z,99.90
2018-03-24T06:36:53.070Z,99.90
2018-03-24T06:39:20.531Z,99.90
2018-03-24T06:41:47.979Z,99.90
2018-03-24T06:44:15.432Z,99.90
2018-03-24T06:46:42.904Z,99.90
2018-03-24T06:49:10.359Z,99.90
2018-03-24T06:51:37.851Z,99.90
2018-03-24T06:54:06.103Z,99.90
2018-03-24T06:56:33.567Z,99.90
2018-03-24T06:59:01.031Z,99.90
2018-03-24T07:01:28.477Z,99.90
2018-03-24T07:03:55.956Z,99.90
2018-03-24T07:06:23.408Z,99.90
2018-03-24T07:08:50.868Z,99.90
2018-03-24T07:11:18.315Z,99.90
2018-03-24T07:13:45.780Z,99.90
2018-03-24T07:16:13.224Z,99.90
2018-03-24T07:18:40.695Z,99.90
2018-03-24T07:21:08.931Z,99.90
2018-03-24T07:23:36.396Z,99.90
2018-03-24T07:26:03.849Z,99.90
2018-03-24T07:28:31.324Z,99.90
2018-03-24T07:30:58.784Z,99.90
2018-03-24T07:33:26.275Z,99.90
2018-03-24T07:35:54.496Z,99.90
2018-03-24T07:38:21.951Z,99.90
2018-03-24T07:40:49.419Z,99.90
2018-03-24T07:43:16.862Z,99.90
2018-03-24T07:45:44.325Z,99.90
2018-03-24T07:48:11.767Z,99.90
2018-03-24T07:50:39.270Z,99.60
2018-03-24T07:53:06.707Z,99.10
2018-03-24T07:55:34.160Z,96.50
2018-03-24T07:58:01.609Z,97.00
2018-03-24T08:00:29.064Z,95.90
2018-03-24T08:02:56.515Z,94.90
2018-03-24T08:05:23.967Z,94.80
2018-03-24T08:07:51.439Z,94.00
2018-03-24T08:10:18.892Z,94.60
2018-03-24T08:12:46.339Z,93.20
2018-03-24T08:15:13.854Z,92.20
2018-03-24T08:17:41.304Z,92.40
2018-03-24T08:20:08.764Z,91.80
2018-03-24T08:22:36.241Z,91.30
2018-03-24T08:25:04.455Z,91.30
2018-03-24T08:27:31.907Z,91.30
2018-03-24T08:29:59.373Z,90.80
2018-03-24T08:32:26.823Z,90.50
2018-03-24T08:34:54.296Z,88.40
2018-03-24T08:37:21.748Z,90.80
2018-03-24T08:39:49.208Z,89.20
2018-03-24T08:42:16.661Z,86.00
2018-03-24T08:44:44.151Z,87.80
2018-03-24T08:47:11.564Z,85.40
2018-03-24T08:49:39.026Z,87.00
2018-03-24T08:52:06.474Z,83.90
2018-03-24T08:54:33.953Z,84.50
2018-03-24T08:57:02.363Z,82.50
2018-03-24T08:59:29.824Z,84.00
2018-03-24T09:01:57.265Z,79.20
2018-03-24T09:04:24.720Z,80.30
2018-03-24T09:06:52.184Z,78.70
2018-03-24T09:09:19.637Z,76.00
2018-03-24T09:11:47.092Z,72.40
2018-03-24T09:14:14.556Z,68.60
2018-03-24T09:16:41.998Z,66.50
2018-03-24T09:19:09.472Z,66.30
2018-03-24T09:21:36.936Z,60.80
2018-03-24T09:24:04.392Z,63.50
2018-03-24T09:26:31.834Z,60.00
2018-03-24T09:28:59.292Z,57.70
2018-03-24T09:31:26.764Z,60.60
2018-03-24T09:33:54.992Z,56.90
2018-03-24T09:36:22.454Z,56.90
2018-03-24T09:38:49.903Z,53.20
2018-03-24T09:41:17.412Z,51.10
2018-03-24T09:43:44.880Z,53.20
2018-03-24T09:46:12.824Z,54.40
2018-03-24T09:48:40.330Z,57.30
2018-03-24T09:51:07.805Z,55.30
2018-03-24T09:53:35.320Z,53.60
2018-03-24T09:56:03.590Z,53.40
2018-03-24T09:58:31.097Z,53.30
2018-03-24T10:00:58.588Z,52.20
2018-03-24T10:03:26.053Z,52.50
2018-03-24T10:05:53.571Z,53.40
2018-03-24T10:08:21.024Z,52.00
2018-03-24T10:10:48.524Z,52.80
2018-03-24T10:13:15.980Z,52.40
2018-03-24T10:15:43.452Z,50.70
2018-03-24T10:18:10.921Z,50.70
2018-03-24T10:24:05.964Z,46.80
2018-03-24T10:26:33.405Z,46.70
2018-03-24T10:29:01.615Z,45.10
2018-03-24T10:31:29.076Z,45.10
2018-03-24T10:34:01.476Z,45.30
2018-03-24T10:36:28.929Z,41.60
2018-03-24T10:38:56.418Z,41.20
2018-03-24T10:41:24.666Z,45.00
2018-03-24T10:43:52.096Z,44.30
2018-03-24T10:46:19.564Z,42.90
2018-03-24T10:48:47.020Z,42.70
2018-03-24T10:51:14.476Z,43.90
2018-03-24T10:53:41.924Z,42.20
2018-03-24T10:56:09.385Z,41.10
2018-03-24T10:58:36.836Z,40.60
2018-03-24T11:01:09.890Z,39.50
2018-03-24T11:03:38.100Z,40.50
2018-03-24T11:06:05.555Z,40.40
2018-03-24T11:08:33.013Z,38.50
2018-03-24T11:11:00.528Z,38.10
2018-03-24T11:13:28.752Z,40.40
2018-03-24T11:15:56.264Z,40.40
2018-03-24T11:18:24.481Z,40.00
2018-03-24T11:20:51.937Z,40.00
2018-03-24T11:23:19.396Z,36.80
2018-03-24T11:25:46.855Z,33.20
2018-03-24T11:28:14.311Z,33.30
2018-03-24T11:30:42.519Z,36.20
2018-03-24T11:33:09.979Z,36.20
2018-03-24T11:35:37.439Z,38.50
2018-03-24T11:38:04.896Z,37.40
2018-03-24T11:40:32.364Z,37.60
2018-03-24T11:43:00.595Z,34.40
2018-03-24T11:45:28.047Z,34.90
2018-03-24T11:47:55.565Z,34.80
2018-03-24T11:50:23.019Z,35.20
2018-03-24T11:52:51.237Z,35.20
2018-03-24T11:55:18.695Z,35.20
2018-03-24T11:57:46.150Z,35.60
2018-03-24T12:00:13.611Z,33.00
2018-03-24T12:02:41.069Z,33.40
2018-03-24T12:05:08.539Z,36.70
2018-03-24T12:07:36.001Z,38.60
2018-03-24T12:10:03.474Z,38.80
2018-03-24T12:12:30.960Z,37.20
2018-03-24T12:14:58.408Z,34.00
2018-03-24T12:17:26.632Z,35.00
2018-03-24T12:19:54.088Z,35.00
2018-03-24T12:22:22.313Z,31.10
2018-03-24T12:24:50.533Z,29.00
2018-03-24T12:27:17.996Z,28.90
2018-03-24T12:29:45.458Z,29.40
2018-03-24T12:32:12.948Z,32.40
2018-03-24T12:34:40.408Z,33.00
2018-03-24T12:37:07.887Z,32.60
2018-03-24T12:39:36.105Z,31.40
2018-03-24T12:42:03.562Z,31.40
2018-03-24T12:44:31.032Z,32.60
2018-03-24T12:46:58.496Z,29.70
2018-03-24T12:49:25.952Z,29.90
2018-03-24T12:51:53.453Z,32.10
2018-03-24T12:54:20.909Z,34.90
2018-03-24T12:56:48.372Z,37.60
2018-03-24T12:59:15.827Z,32.40
2018-03-24T13:01:43.293Z,29.90
2018-03-24T13:04:10.741Z,31.10
2018-03-24T13:06:38.201Z,31.30
2018-03-24T13:09:05.659Z,31.90
2018-03-24T13:11:33.120Z,32.70
2018-03-24T13:14:00.629Z,36.60
2018-03-24T13:16:28.040Z,42.40
2018-03-24T13:18:55.536Z,42.60
2018-03-24T13:21:23.016Z,40.50
2018-03-24T13:23:50.477Z,35.50
2018-03-24T13:26:17.933Z,40.70
2018-03-24T13:28:45.399Z,43.40
2018-03-24T13:31:12.845Z,37.10
2018-03-24T13:33:40.295Z,37.60
2018-03-24T13:36:07.771Z,36.80
2018-03-24T13:38:35.212Z,40.00
2018-03-24T13:41:03.228Z,40.70
2018-03-24T13:43:30.713Z,42.00
2018-03-24T13:45:58.185Z,43.40
2018-03-24T13:48:25.646Z,44.00
2018-03-24T13:50:53.120Z,44.30
2018-03-24T13:53:20.580Z,45.00
2018-03-24T13:55:48.814Z,44.20
2018-03-24T13:58:16.275Z,44.20
2018-03-24T14:00:43.755Z,43.70
2018-03-24T14:03:11.219Z,43.50
2018-03-24T14:05:38.688Z,42.00
2018-03-24T14:08:06.923Z,40.80
2018-03-24T14:10:34.378Z,41.20
2018-03-24T14:13:01.854Z,40.50
2018-03-24T14:15:29.308Z,40.60
2018-03-24T14:17:56.804Z,40.60
2018-03-24T14:20:25.026Z,39.40
2018-03-24T14:22:52.487Z,39.40
2018-03-24T14:25:19.939Z,41.00
2018-03-24T14:27:47.407Z,42.90
2018-03-24T14:30:14.868Z,43.50
2018-03-24T14:32:42.332Z,42.80
2018-03-24T14:35:09.823Z,39.70
2018-03-24T14:37:37.295Z,39.10
2018-03-24T14:40:04.736Z,38.80
2018-03-24T14:42:32.194Z,40.40
2018-03-24T14:45:00.424Z,38.90
2018-03-24T14:47:27.888Z,38.90
2018-03-24T14:49:55.348Z,39.50
2018-03-24T14:52:22.839Z,39.80
2018-03-24T14:54:51.065Z,39.20
2018-03-24T14:57:18.532Z,39.20
2018-03-24T14:59:46.023Z,39.40
2018-03-24T15:02:13.488Z,39.40
2018-03-24T15:04:41.719Z,39.20
2018-03-24T15:07:09.188Z,38.50
2018-03-24T15:09:36.635Z,39.60
2018-03-24T15:12:04.106Z,39.00
2018-03-24T15:14:31.580Z,38.60
2018-03-24T15:16:59.064Z,39.00
2018-03-24T15:19:26.495Z,37.60
2018-03-24T15:21:54.727Z,39.20
2018-03-24T15:24:22.172Z,38.90
2018-03-24T15:26:49.645Z,39.50
2018-03-24T15:29:28.923Z,41.20
2018-03-24T15:32:08.882Z,39.60
2018-03-24T15:34:49.049Z,39.40
2018-03-24T15:37:16.544Z,39.40
2018-03-24T15:39:44.028Z,39.30
2018-03-24T15:42:11.481Z,40.20
2018-03-24T15:44:38.927Z,40.70
2018-03-24T15:47:06.392Z,40.90
2018-03-24T15:49:33.844Z,41.10
2018-03-24T15:52:01.303Z,40.70
2018-03-24T15:54:28.752Z,41.00
2018-03-24T15:56:56.253Z,41.90
2018-03-24T15:59:24.476Z,42.70
2018-03-24T16:01:51.940Z,42.70
2018-03-24T16:04:19.408Z,43.50
2018-03-24T16:06:46.883Z,44.00
2018-03-24T16:09:14.332Z,45.30
2018-03-24T16:11:41.788Z,45.30
2018-03-24T16:14:09.248Z,46.70
2018-03-24T16:16:37.495Z,43.80
2018-03-24T16:19:05.003Z,43.80
2018-03-24T16:21:33.236Z,44.00
2018-03-24T16:24:00.701Z,43.90
2018-03-24T16:26:28.162Z,44.50
2018-03-24T16:28:55.624Z,45.30
2018-03-24T16:31:23.070Z,46.30
2018-03-24T16:33:50.526Z,47.20
2018-03-24T16:36:17.973Z,46.80
2018-03-24T16:38:45.440Z,46.50
2018-03-24T16:41:12.888Z,47.20
2018-03-24T16:43:40.370Z,49.00
2018-03-24T16:46:07.822Z,48.80
2018-03-24T16:48:35.273Z,48.90
2018-03-24T16:51:02.732Z,49.00
2018-03-24T16:53:30.214Z,48.40
2018-03-24T16:55:57.659Z,48.30
2018-03-24T16:58:25.113Z,49.00
2018-03-24T17:00:52.583Z,49.40
2018-03-24T17:03:20.023Z,50.30
2018-03-24T17:05:47.496Z,49.40
2018-03-24T17:08:14.956Z,50.20
2018-03-24T17:10:42.412Z,50.20
2018-03-24T17:13:10.651Z,50.50
2018-03-24T17:15:38.108Z,50.50
2018-03-24T17:18:05.564Z,51.70
2018-03-24T17:20:33.023Z,50.40
2018-03-24T17:23:00.479Z,50.00
2018-03-24T17:25:27.936Z,50.10
2018-03-24T17:27:55.446Z,50.30
2018-03-24T17:30:22.853Z,50.30
2018-03-24T17:32:50.309Z,50.00
2018-03-24T17:35:17.777Z,50.30
2018-03-24T17:37:45.244Z,50.90
2018-03-24T17:40:12.680Z,51.60
2018-03-24T17:42:40.147Z,52.50
2018-03-24T17:45:07.594Z,53.10
2018-03-24T17:47:35.052Z,53.30
2018-03-24T17:50:02.509Z,53.70
2018-03-24T17:52:29.976Z,55.00
2018-03-24T17:54:57.427Z,55.80
2018-03-24T17:57:24.887Z,55.80
2018-03-24T17:59:52.343Z,57.00
2018-03-24T18:02:19.803Z,58.00
2018-03-24T18:04:47.261Z,58.00
2018-03-24T18:07:14.696Z,59.00
2018-03-24T18:09:42.165Z,58.20
2018-03-24T18:12:09.624Z,58.90
2018-03-24T18:14:37.080Z,60.10
2018-03-24T18:17:05.412Z,58.70
2018-03-24T18:19:33.638Z,60.20
2018-03-24T18:22:01.087Z,60.10
2018-03-24T18:24:28.547Z,64.80
2018-03-24T18:26:56.005Z,68.20
2018-03-24T18:29:23.464Z,67.00
2018-03-24T18:31:50.927Z,66.50
2018-03-24T18:34:18.376Z,66.10
2018-03-24T18:36:45.875Z,62.70
2018-03-24T18:39:14.095Z,63.80
2018-03-24T18:41:41.544Z,63.90
2018-03-24T18:44:09.027Z,65.70
2018-03-24T18:46:36.481Z,65.90
2018-03-24T18:49:03.940Z,63.60
2018-03-24T18:51:31.396Z,62.70
2018-03-24T18:53:59.844Z,67.00
2018-03-24T18:56:27.284Z,69.50
2018-03-24T18:58:55.513Z,73.00
2018-03-24T19:01:22.968Z,73.00
2018-03-24T19:03:50.424Z,76.00
2018-03-24T19:06:17.879Z,80.70
2018-03-24T19:08:45.337Z,79.30
2018-03-24T19:11:12.819Z,81.80
2018-03-24T19:13:40.260Z,82.90
2018-03-24T19:16:07.711Z,82.50
2018-03-24T19:18:35.167Z,82.60
2018-03-24T19:21:02.622Z,82.60
2018-03-24T19:23:30.076Z,83.20
2018-03-24T19:25:57.522Z,83.80
2018-03-24T19:28:24.961Z,84.90
2018-03-24T19:30:52.412Z,85.10
2018-03-24T19:33:19.911Z,85.30
2018-03-24T19:35:48.083Z,87.30
2018-03-24T19:38:15.541Z,87.10
2018-03-24T19:40:43.020Z,88.10
2018-03-24T19:43:10.468Z,86.70
2018-03-24T19:45:37.916Z,87.90
2018-03-24T19:48:05.382Z,88.00
2018-03-24T19:50:32.828Z,89.10
2018-03-24T19:53:00.292Z,89.10
2018-03-24T19:55:27.744Z,87.90
2018-03-24T19:57:55.211Z,88.30
2018-03-24T20:00:22.664Z,89.00
2018-03-24T20:02:50.112Z,90.70
2018-03-24T20:05:17.569Z,90.10
2018-03-24T20:07:45.032Z,89.70
2018-03-24T20:10:12.485Z,89.60
2018-03-24T20:12:39.958Z,90.00
2018-03-24T20:15:07.399Z,90.40
2018-03-24T20:17:34.855Z,90.30
2018-03-24T20:20:02.314Z,88.00
2018-03-24T20:22:29.768Z,89.60
2018-03-24T20:24:57.228Z,90.40
2018-03-24T20:27:24.668Z,91.00
2018-03-24T20:29:52.143Z,91.10
2018-03-24T20:32:19.600Z,91.90
2018-03-24T20:34:47.088Z,90.90
2018-03-24T20:37:15.332Z,91.10
2018-03-24T20:39:42.817Z,91.10
2018-03-24T20:42:10.260Z,91.20
2018-03-24T20:44:37.727Z,91.40
2018-03-24T20:47:05.176Z,91.90
2018-03-24T20:49:32.652Z,92.10
2018-03-24T20:52:00.893Z,92.60
2018-03-24T20:54:28.351Z,92.50
2018-03-24T20:56:55.792Z,92.30
2018-03-24T20:59:23.266Z,92.30
2018-03-24T21:01:50.724Z,92.90
2018-03-24T21:04:18.199Z,92.40
2018-03-24T21:06:45.665Z,92.50
2018-03-24T21:09:13.119Z,92.50
2018-03-24T21:11:40.604Z,91.80
2018-03-24T21:14:08.061Z,92.30
2018-03-24T21:16:35.521Z,92.40
2018-03-24T21:19:02.979Z,92.60
2018-03-24T21:21:30.488Z,92.80
2018-03-24T21:23:57.960Z,93.00
2018-03-24T21:26:25.407Z,93.00
2018-03-24T21:28:52.855Z,93.10
2018-03-24T21:31:20.333Z,93.40
2018-03-24T21:33:47.784Z,93.50
2018-03-24T21:36:15.284Z,93.80
2018-03-24T21:38:43.542Z,93.00
2018-03-24T21:41:10.975Z,93.00
2018-03-24T21:43:38.468Z,92.40
2018-03-24T21:46:06.695Z,86.80
2018-03-24T21:48:34.152Z,86.80
2018-03-24T21:51:01.611Z,84.60
2018-03-24T21:53:29.067Z,84.00
2018-03-24T21:55:56.528Z,82.00
2018-03-24T21:58:23.968Z,82.10
2018-03-24T22:00:51.421Z,81.70
2018-03-24T22:03:18.860Z,81.80
2018-03-24T22:05:46.304Z,82.70
2018-03-24T22:08:13.763Z,84.50
2018-03-24T22:10:41.984Z,86.80
2018-03-24T22:13:09.439Z,86.80
2018-03-24T22:15:36.904Z,90.80
2018-03-24T22:18:04.357Z,90.10
2018-03-24T22:20:31.818Z,90.30
2018-03-24T22:22:59.277Z,90.50
2018-03-24T22:25:26.741Z,89.20
2018-03-24T22:27:54.194Z,86.50
2018-03-24T22:30:21.668Z,87.30
2018-03-24T22:32:49.119Z,88.20
2018-03-24T22:35:16.607Z,91.80
2018-03-24T22:37:44.065Z,90.50
2018-03-24T22:40:12.297Z,91.10
2018-03-24T22:42:39.753Z,91.10
2018-03-24T22:45:07.212Z,92.00
2018-03-24T22:47:34.667Z,93.10
2018-03-24T22:50:02.164Z,92.50
2018-03-24T22:52:30.401Z,93.80
2018-03-24T22:54:57.868Z,93.80
2018-03-24T22:57:25.328Z,90.80
2018-03-24T22:59:52.801Z,89.60
2018-03-24T23:02:20.294Z,90.80
2018-03-24T23:04:47.738Z,91.20
2018-03-24T23:07:15.196Z,90.70
2018-03-24T23:09:43.419Z,90.70
2018-03-24T23:12:10.907Z,90.60
2018-03-24T23:14:39.110Z,88.10
2018-03-24T23:17:06.568Z,87.20
2018-03-24T23:19:34.011Z,84.40
2018-03-24T23:22:01.472Z,85.20
2018-03-24T23:24:28.912Z,84.00
2018-03-24T23:26:56.367Z,83.10
2018-03-24T23:29:24.577Z,85.90
2018-03-24T23:31:52.027Z,86.00
2018-03-24T23:34:19.535Z,90.00
2018-03-24T23:36:46.928Z,92.90
2018-03-24T23:39:14.373Z,91.60
2018-03-24T23:41:42.615Z,88.40
2018-03-24T23:44:10.074Z,88.50
2018-03-24T23:46:37.550Z,87.30
2018-03-24T23:49:05.036Z,85.00
2018-03-24T23:51:33.264Z,87.90
2018-03-24T23:54:00.720Z,87.90
2018-03-24T23:56:28.200Z,90.10
2018-03-24T23:58:56.407Z,91.00
